aviador You're here:

OTHH Decoded Metar

in
Report Time2018-07-22 02:00:00
UTC Time2018-07-22 03:01:41
Flight Rules vfr VFR
Wind350° at 08 kt
W.Decomp.*RWY 34: 7.9 kt HW 1.4 kt RCW
W.Rank350° ranks 4
Current wind is below 350° avg. (11.5)
Visibility9999 m
Phenomena:N/A
Clouds:N/A
Expected CloudBase > 2,800 ft AGL from Temp-Dew spread
CeilingNone
Temp31°C
Dew Point24°C (66% RH)
Heat Index36.4°C
QNH0996 hPa
Raw Report
METAR OTHH 220200Z 35008KT CAVOK 31/24 Q0996 NOSIG=

Extra information for OTHH:More info

Social comments